Time;durP1;ratioP1;P1;durP2;ratioP2;P2;SDS_P1;SDS_P2;PMS_P1;PMS_P2;Temp;Humidity;BMP_temperature;BMP_pressure;BME280_temperature;BME280_humidity;BME280_pressure;Samples;Min_cycle;Max_cycle;Signal;HPM_P1;HPM_P2
2021/12/19 00:09:02;;;;;;;6.45;3.25;;;2.70;72.30;;;;;;5077540;28;20035;-41
2021/12/19 00:11:29;;;;;;;5.95;2.97;;;2.70;72.50;;;;;;5077385;28;20051;-41
2021/12/19 00:13:55;;;;;;;7.90;3.90;;;2.70;72.40;;;;;;5077126;28;20033;-40
2021/12/19 00:16:23;;;;;;;6.32;2.80;;;2.70;72.40;;;;;;5077685;28;20024;-47
2021/12/19 00:18:50;;;;;;;5.35;2.50;;;2.60;72.30;;;;;;5077231;28;20043;-40
2021/12/19 00:21:17;;;;;;;4.53;2.70;;;2.60;72.50;;;;;;5077206;28;20056;-40
2021/12/19 00:23:45;;;;;;;4.22;2.47;;;2.60;72.70;;;;;;5077003;28;20055;-45
2021/12/19 00:26:12;;;;;;;3.53;2.40;;;2.60;72.90;;;;;;5077170;28;20031;-46
2021/12/19 00:28:38;;;;;;;4.38;2.38;;;2.60;73.00;;;;;;5076923;28;20031;-41
2021/12/19 00:31:05;;;;;;;4.93;2.38;;;2.60;73.20;;;;;;5077210;28;20107;-40
2021/12/19 00:33:31;;;;;;;8.07;2.80;;;2.60;73.20;;;;;;5076818;28;20025;-41
2021/12/19 00:35:57;;;;;;;3.85;2.22;;;2.60;73.40;;;;;;5077456;28;20384;-45
2021/12/19 00:38:23;;;;;;;3.17;2.10;;;2.60;73.50;;;;;;5076723;28;20271;-48
2021/12/19 00:40:49;;;;;;;4.85;2.30;;;2.60;73.50;;;;;;5076896;28;20033;-40
2021/12/19 00:46:07;;;;;;;4.80;2.60;;;2.60;73.70;;;;;;5076425;28;20317;-46
2021/12/19 00:48:39;;;;;;;4.03;2.70;;;2.60;73.70;;;;;;5076730;28;20103;-48
2021/12/19 00:51:06;;;;;;;4.38;2.42;;;2.60;73.70;;;;;;5076731;28;20039;-45
2021/12/19 00:53:32;;;;;;;4.90;2.67;;;2.60;73.70;;;;;;5076182;28;20024;-46
2021/12/19 00:55:58;;;;;;;4.45;2.58;;;2.60;73.80;;;;;;5076951;28;20037;-40
2021/12/19 00:58:24;;;;;;;5.10;2.70;;;2.60;74.00;;;;;;5076149;28;20094;-45
2021/12/19 01:00:49;;;;;;;4.45;2.55;;;2.60;74.10;;;;;;5076385;28;20029;-41
2021/12/19 01:03:15;;;;;;;4.80;2.50;;;2.60;74.10;;;;;;5076794;28;20100;-41
2021/12/19 01:05:42;;;;;;;4.75;2.30;;;2.60;74.20;;;;;;5076794;28;20033;-40
2021/12/19 01:08:11;;;;;;;5.38;3.05;;;2.50;74.30;;;;;;5076355;28;20039;-40
2021/12/19 01:10:37;;;;;;;4.80;2.83;;;2.50;74.40;;;;;;5076671;28;20526;-41
2021/12/19 01:13:03;;;;;;;6.82;3.20;;;2.60;74.60;;;;;;5076325;28;20028;-46
2021/12/19 01:15:29;;;;;;;10.50;3.38;;;2.50;74.60;;;;;;5076527;28;20035;-41
2021/12/19 01:17:55;;;;;;;6.63;3.50;;;2.50;74.70;;;;;;5076594;28;20409;-46
2021/12/19 01:20:26;;;;;;;8.38;4.03;;;2.50;74.90;;;;;;5076267;28;20028;-46
2021/12/19 01:22:52;;;;;;;4.38;2.88;;;2.50;75.00;;;;;;5076156;28;20035;-40
2021/12/19 01:25:19;;;;;;;5.25;2.85;;;2.50;75.10;;;;;;5076307;28;20409;-40
2021/12/19 01:27:45;;;;;;;5.28;3.17;;;2.50;75.20;;;;;;5076438;28;20024;-41
2021/12/19 01:30:13;;;;;;;4.13;3.00;;;2.60;75.40;;;;;;5075949;28;20039;-41
2021/12/19 01:32:39;;;;;;;4.55;2.90;;;2.50;75.40;;;;;;5076233;28;20040;-40
2021/12/19 01:35:08;;;;;;;4.28;2.55;;;2.50;75.40;;;;;;5076058;28;20030;-45
2021/12/19 01:37:34;;;;;;;4.05;2.67;;;2.60;75.50;;;;;;5076300;28;20321;-48
2021/12/19 01:40:00;;;;;;;4.10;2.92;;;2.50;75.50;;;;;;5075557;28;20027;-45
2021/12/19 01:42:38;;;;;;;6.65;3.35;;;2.60;75.50;;;;;;5076130;28;20336;-41
2021/12/19 01:45:06;;;;;;;6.18;3.17;;;2.60;75.60;;;;;;5076142;28;20103;-48
2021/12/19 01:47:32;;;;;;;5.25;3.50;;;2.60;75.70;;;;;;5075886;28;20038;-48
2021/12/19 01:49:58;;;;;;;4.93;3.53;;;2.60;75.60;;;;;;5075947;28;20036;-40
2021/12/19 01:52:24;;;;;;;5.30;3.30;;;2.60;75.80;;;;;;5075864;28;20032;-46
2021/12/19 01:54:50;;;;;;;4.50;3.30;;;2.50;75.80;;;;;;5075311;28;20344;-40
2021/12/19 01:57:17;;;;;;;5.22;3.00;;;2.60;76.00;;;;;;5075868;28;20067;-44
2021/12/19 01:59:42;;;;;;;6.45;3.20;;;2.50;76.20;;;;;;5075634;28;20111;-40
2021/12/19 02:02:08;;;;;;;6.22;3.20;;;2.50;76.40;;;;;;5075841;28;20128;-47
2021/12/19 02:04:34;;;;;;;6.03;3.45;;;2.50;76.50;;;;;;5075596;28;20036;-40
2021/12/19 02:07:01;;;;;;;5.68;3.65;;;2.50;76.90;;;;;;5075847;28;20321;-40
2021/12/19 02:09:27;;;;;;;5.78;3.22;;;2.50;77.00;;;;;;5075545;28;20033;-48
2021/12/19 02:11:53;;;;;;;4.95;3.10;;;2.50;77.20;;;;;;5075816;28;20039;-47
2021/12/19 02:14:20;;;;;;;6.20;3.40;;;2.50;77.40;;;;;;5075467;28;20397;-40
2021/12/19 02:16:45;;;;;;;9.07;3.50;;;2.50;77.60;;;;;;5075876;28;20039;-40
2021/12/19 02:19:12;;;;;;;7.15;3.95;;;2.50;77.80;;;;;;5075265;28;20032;-45
2021/12/19 02:21:39;;;;;;;7.55;3.95;;;2.50;77.90;;;;;;5075639;28;20113;-45
2021/12/19 02:24:08;;;;;;;6.30;3.22;;;2.50;78.10;;;;;;5075258;28;20033;-40
2021/12/19 02:26:36;;;;;;;6.63;3.88;;;2.50;78.20;;;;;;5075731;28;20024;-41
2021/12/19 02:29:02;;;;;;;5.13;3.60;;;2.40;78.50;;;;;;5075022;28;20020;-41
2021/12/19 02:31:30;;;;;;;6.00;3.53;;;2.40;78.50;;;;;;5075724;28;20035;-45
2021/12/19 02:34:43;;;;;;;5.65;3.50;;;2.40;78.80;;;;;;5074848;28;20032;-45
2021/12/19 02:50:06;;;;;;;7.80;3.90;;;2.40;79.70;;;;;;5075430;28;20350;-40
2021/12/19 02:52:32;;;;;;;6.30;3.67;;;2.40;79.70;;;;;;5077248;28;20029;-43
2021/12/19 02:54:58;;;;;;;6.72;3.95;;;2.40;79.80;;;;;;5078412;28;20321;-45
2021/12/19 02:57:24;;;;;;;9.15;4.70;;;2.50;79.90;;;;;;5079142;28;20060;-46
2021/12/19 02:59:50;;;;;;;8.05;4.53;;;2.50;80.00;;;;;;5078870;28;20020;-40
2021/12/19 03:02:17;;;;;;;7.70;4.47;;;2.50;80.10;;;;;;5078723;28;20028;-40
2021/12/19 03:04:52;;;;;;;8.57;4.57;;;2.50;80.10;;;;;;5078607;28;20025;-45
2021/12/19 03:07:18;;;;;;;5.43;3.95;;;2.60;80.20;;;;;;5079083;28;20036;-41
2021/12/19 03:18:11;;;;;;;7.05;4.43;;;2.60;80.30;;;;;;5078984;28;20035;-49
2021/12/19 03:20:39;;;;;;;8.27;5.45;;;2.60;80.40;;;;;;5078708;28;20116;-45
2021/12/19 03:23:06;;;;;;;8.57;4.85;;;2.60;80.50;;;;;;5078639;28;20067;-46
2021/12/19 03:25:33;;;;;;;9.95;5.22;;;2.70;80.60;;;;;;5078686;28;20024;-49
2021/12/19 03:28:01;;;;;;;8.00;5.35;;;2.70;80.60;;;;;;5078347;28;20320;-45
2021/12/19 03:30:28;;;;;;;9.50;5.22;;;2.70;80.60;;;;;;5078291;28;20055;-41
2021/12/19 03:32:54;;;;;;;8.65;5.53;;;2.70;80.60;;;;;;5078308;28;20024;-40
2021/12/19 03:35:20;;;;;;;9.20;5.43;;;2.70;80.60;;;;;;5078346;28;20404;-40
2021/12/19 03:37:47;;;;;;;9.95;6.10;;;2.70;80.60;;;;;;5078397;28;20025;-40
2021/12/19 03:40:21;;;;;;;12.00;5.82;;;2.70;80.70;;;;;;5078171;28;20056;-45
2021/12/19 03:42:49;;;;;;;8.00;4.90;;;2.70;80.70;;;;;;5078544;28;20127;-41
2021/12/19 03:45:18;;;;;;;10.68;5.68;;;2.70;80.70;;;;;;5078141;28;20026;-45
2021/12/19 03:47:44;;;;;;;9.57;5.97;;;2.80;80.80;;;;;;5078136;28;20056;-40
2021/12/19 03:50:16;;;;;;;12.73;5.97;;;2.80;80.80;;;;;;5077731;28;20438;-46
2021/12/19 03:52:42;;;;;;;10.93;6.30;;;2.90;80.90;;;;;;5078351;28;20048;-40
2021/12/19 03:55:08;;;;;;;9.30;5.38;;;2.90;80.80;;;;;;5077839;28;20091;-40
2021/12/19 03:57:34;;;;;;;11.65;6.18;;;2.90;80.90;;;;;;5077772;28;20021;-45
2021/12/19 04:00:00;;;;;;;11.35;6.45;;;2.90;80.90;;;;;;5077817;28;20024;-45
2021/12/19 04:02:29;;;;;;;12.73;6.68;;;2.90;80.80;;;;;;5077206;28;20440;-46
2021/12/19 04:04:57;;;;;;;11.45;6.78;;;3.00;80.80;;;;;;5077565;28;20032;-45
2021/12/19 04:07:24;;;;;;;12.77;7.32;;;3.00;80.90;;;;;;5078036;28;20025;-41
2021/12/19 04:09:50;;;;;;;12.45;6.82;;;3.00;80.90;;;;;;5077391;28;20039;-41
2021/12/19 04:12:16;;;;;;;10.77;6.20;;;3.00;80.80;;;;;;5077800;28;20029;-40
2021/12/19 04:14:42;;;;;;;10.45;6.60;;;3.00;80.90;;;;;;5077525;28;20033;-48
2021/12/19 04:17:08;;;;;;;13.00;7.50;;;3.00;80.90;;;;;;5077886;28;20039;-45
2021/12/19 04:19:34;;;;;;;12.30;7.80;;;3.00;81.00;;;;;;5077407;28;20382;-47
2021/12/19 04:22:00;;;;;;;12.57;7.03;;;3.00;80.90;;;;;;5077351;28;20052;-41
2021/12/19 04:24:26;;;;;;;12.73;7.47;;;3.00;80.80;;;;;;5077207;28;20029;-46
2021/12/19 04:26:57;;;;;;;12.85;7.43;;;3.00;80.90;;;;;;5077107;28;20024;-46
2021/12/19 04:29:24;;;;;;;12.18;6.90;;;3.00;80.80;;;;;;5077198;28;20031;-41
2021/12/19 04:31:53;;;;;;;18.00;7.75;;;3.00;80.80;;;;;;5077483;28;20450;-48
2021/12/19 04:34:23;;;;;;;12.98;7.57;;;3.00;80.90;;;;;;5076842;28;20082;-40
2021/12/19 04:36:55;;;;;;;13.82;8.05;;;3.00;80.90;;;;;;5077184;28;20044;-40
2021/12/19 04:39:53;;;;;;;11.32;6.75;;;3.00;80.90;;;;;;5077089;28;20071;-43
2021/12/19 05:03:46;;;;;;;13.75;7.43;;;3.20;80.70;;;;;;5076224;28;20062;-45
2021/12/19 05:14:22;;;;;;;14.27;8.32;;;3.20;80.80;;;;;;5075600;28;20091;-40
2021/12/19 05:16:50;;;;;;;16.38;8.88;;;3.20;80.80;;;;;;5076404;28;20064;-45
2021/12/19 05:21:51;;;;;;;13.93;8.43;;;3.20;81.00;;;;;;5076577;28;20119;-45
2021/12/19 05:24:22;;;;;;;13.07;8.25;;;3.20;81.10;;;;;;5075864;28;20458;-46
2021/12/19 05:26:48;;;;;;;14.65;8.73;;;3.20;81.10;;;;;;5076531;28;20340;-40
2021/12/19 05:29:16;;;;;;;16.25;9.40;;;3.10;81.10;;;;;;5075886;28;20031;-45
2021/12/19 05:31:43;;;;;;;15.52;9.60;;;3.20;81.20;;;;;;5076179;28;20036;-40
2021/12/19 05:34:09;;;;;;;15.20;8.73;;;3.20;81.20;;;;;;5075907;28;20032;-40
2021/12/19 05:47:16;;;;;;;16.50;8.35;;;3.20;81.60;;;;;;5076168;28;20120;-40
2021/12/19 05:49:42;;;;;;;13.68;8.52;;;3.20;81.60;;;;;;5075699;28;20025;-40
2021/12/19 05:52:08;;;;;;;18.02;8.68;;;3.20;81.60;;;;;;5075709;28;20059;-46
2021/12/19 05:54:34;;;;;;;12.98;8.63;;;3.20;81.70;;;;;;5075209;28;20040;-41
2021/12/19 05:57:00;;;;;;;12.60;8.15;;;3.20;81.80;;;;;;5075735;28;20039;-42
2021/12/19 05:59:26;;;;;;;15.48;8.20;;;3.20;82.00;;;;;;5075520;28;20029;-40
2021/12/19 06:01:51;;;;;;;16.05;8.32;;;3.20;82.10;;;;;;5075880;28;20040;-40
2021/12/19 06:04:17;;;;;;;16.40;9.77;;;3.20;82.30;;;;;;5075514;28;20029;-45
2021/12/19 06:06:43;;;;;;;16.02;9.32;;;3.10;82.30;;;;;;5075624;28;20039;-42
2021/12/19 06:09:09;;;;;;;17.10;9.15;;;3.20;82.50;;;;;;5073804;28;20025;-45
2021/12/19 06:11:34;;;;;;;15.13;8.75;;;3.10;82.60;;;;;;5075669;28;20321;-47
2021/12/19 06:14:00;;;;;;;14.55;8.98;;;3.10;82.60;;;;;;5075223;28;20033;-40
2021/12/19 06:16:26;;;;;;;19.00;13.77;;;3.20;82.80;;;;;;5075635;28;20464;-47
2021/12/19 06:18:51;;;;;;;13.18;8.40;;;3.20;82.90;;;;;;5075196;28;20387;-41
2021/12/19 06:21:17;;;;;;;18.63;9.02;;;3.20;82.90;;;;;;5075397;28;20040;-48
2021/12/19 06:23:43;;;;;;;16.92;9.40;;;3.20;83.00;;;;;;5075278;28;20056;-45
2021/12/19 06:26:10;;;;;;;16.88;9.90;;;3.20;83.10;;;;;;5076901;28;20301;-40
2021/12/19 06:28:36;;;;;;;15.02;8.93;;;3.20;83.10;;;;;;5079218;28;20474;-40
2021/12/19 06:31:02;;;;;;;14.35;9.38;;;3.20;83.20;;;;;;5079710;28;20036;-45
2021/12/19 06:33:27;;;;;;;16.73;9.82;;;3.20;83.80;;;;;;5079011;28;20360;-40
2021/12/19 06:35:53;;;;;;;15.55;9.75;;;3.30;83.20;;;;;;5079456;28;20111;-40
2021/12/19 06:38:18;;;;;;;16.55;10.55;;;3.30;83.20;;;;;;5079036;28;20028;-45
2021/12/19 06:40:44;;;;;;;15.65;9.50;;;3.30;83.10;;;;;;5078885;28;20032;-40
2021/12/19 06:43:10;;;;;;;15.85;8.60;;;3.30;83.10;;;;;;5079240;28;20112;-40
2021/12/19 06:45:35;;;;;;;15.27;9.18;;;3.30;83.00;;;;;;5079324;28;20025;-46
2021/12/19 06:48:01;;;;;;;15.68;9.68;;;3.30;83.00;;;;;;5061674;28;20034;-45
2021/12/19 06:50:27;;;;;;;16.92;9.35;;;3.40;83.10;;;;;;5045181;28;20127;-45
2021/12/19 06:52:53;;;;;;;17.30;9.50;;;3.40;83.10;;;;;;5039210;28;20105;-41
2021/12/19 06:55:19;;;;;;;23.52;10.50;;;3.40;82.90;;;;;;5038191;28;20065;-40
2021/12/19 06:57:46;;;;;;;15.57;9.18;;;3.40;83.00;;;;;;5038701;28;20040;-44
2021/12/19 07:00:21;;;;;;;17.10;9.07;;;3.50;82.90;;;;;;5038752;28;20033;-41
2021/12/19 07:02:47;;;;;;;13.38;8.38;;;3.50;82.70;;;;;;5038502;28;20033;-45
2021/12/19 07:05:13;;;;;;;13.88;8.63;;;3.50;82.60;;;;;;5038668;28;20037;-48
2021/12/19 07:07:39;;;;;;;16.30;9.50;;;3.50;82.60;;;;;;5038798;28;20057;-46
2021/12/19 07:10:07;;;;;;;14.13;8.90;;;3.60;82.70;;;;;;5038294;28;20428;-40
2021/12/19 07:12:33;;;;;;;13.30;8.75;;;3.60;82.50;;;;;;5038512;28;20120;-49
2021/12/19 07:14:59;;;;;;;16.48;9.25;;;3.60;82.40;;;;;;5038626;28;20061;-46
2021/12/19 07:17:25;;;;;;;13.00;8.15;;;3.60;82.40;;;;;;5038434;28;20034;-40
2021/12/19 07:19:52;;;;;;;14.95;9.20;;;3.60;82.30;;;;;;5038085;28;20084;-45
2021/12/19 07:22:19;;;;;;;16.30;9.00;;;3.70;82.30;;;;;;5038263;28;20037;-40
2021/12/19 07:24:45;;;;;;;15.70;9.25;;;3.70;82.30;;;;;;5038026;28;20029;-40
2021/12/19 07:27:12;;;;;;;17.50;8.65;;;3.70;82.30;;;;;;5038184;28;20061;-41
2021/12/19 07:29:38;;;;;;;15.65;9.38;;;3.80;82.40;;;;;;5037961;28;20321;-40
2021/12/19 07:32:04;;;;;;;13.90;8.55;;;3.80;82.40;;;;;;5038428;28;20377;-44
2021/12/19 07:34:33;;;;;;;14.77;7.90;;;3.80;82.90;;;;;;5037890;28;20067;-40
2021/12/19 07:37:00;;;;;;;14.85;8.48;;;3.90;82.20;;;;;;5038211;28;20041;-40
2021/12/19 07:42:12;;;;;;;14.15;8.10;;;4.00;82.00;;;;;;5041167;28;20323;-41
2021/12/19 07:44:39;;;;;;;14.35;8.70;;;4.00;81.70;;;;;;5037939;28;20029;-44
2021/12/19 07:47:09;;;;;;;14.90;9.07;;;4.00;81.70;;;;;;5038232;28;20056;-46
2021/12/19 07:49:35;;;;;;;12.45;7.72;;;4.00;81.70;;;;;;5037546;28;20071;-40
2021/12/19 07:52:02;;;;;;;16.33;8.48;;;4.00;81.50;;;;;;5037938;28;20303;-44
2021/12/19 07:54:28;;;;;;;14.18;8.05;;;4.00;81.40;;;;;;5036923;28;20080;-41
2021/12/19 07:56:54;;;;;;;14.70;8.75;;;4.10;81.30;;;;;;5036876;28;20022;-45
2021/12/19 07:59:19;;;;;;;11.30;7.53;;;4.00;81.20;;;;;;5037774;28;20029;-44
2021/12/19 08:01:45;;;;;;;18.25;8.98;;;4.10;81.30;;;;;;5037543;28;20318;-41
2021/12/19 08:04:11;;;;;;;19.75;9.10;;;4.10;81.40;;;;;;5037549;28;20051;-46
2021/12/19 08:06:37;;;;;;;11.25;7.32;;;4.10;81.30;;;;;;5037926;28;20033;-43
2021/12/19 08:09:20;;;;;;;15.48;8.15;;;4.10;81.50;;;;;;5037065;28;20029;-41
2021/12/19 08:11:46;;;;;;;12.30;7.85;;;4.20;81.60;;;;;;5037856;28;20065;-44
2021/12/19 08:14:14;;;;;;;11.35;7.22;;;4.20;81.60;;;;;;5037073;28;20080;-45
2021/12/19 08:16:41;;;;;;;13.43;8.15;;;4.20;81.40;;;;;;5037721;28;20064;-41
2021/12/19 08:19:07;;;;;;;13.40;8.13;;;4.20;81.20;;;;;;5047844;28;20326;-47
2021/12/19 08:21:33;;;;;;;11.68;7.80;;;4.20;81.30;;;;;;5037396;28;20087;-44
2021/12/19 08:24:01;;;;;;;15.77;8.35;;;4.20;81.20;;;;;;5036899;28;20448;-45
2021/12/19 08:26:28;;;;;;;13.40;7.93;;;4.30;81.20;;;;;;5037350;28;20329;-46
2021/12/19 08:28:54;;;;;;;15.35;7.53;;;4.30;81.20;;;;;;5036144;28;20061;-40
2021/12/19 08:31:20;;;;;;;14.57;7.70;;;4.30;81.30;;;;;;5037464;28;20069;-45
2021/12/19 08:33:46;;;;;;;14.23;8.55;;;4.30;81.30;;;;;;5036889;28;20040;-41
2021/12/19 08:36:12;;;;;;;13.88;8.82;;;4.30;81.40;;;;;;5037171;28;20087;-45
2021/12/19 08:38:37;;;;;;;15.52;8.70;;;4.30;81.50;;;;;;5036732;28;20237;-40
2021/12/19 08:41:03;;;;;;;13.45;8.35;;;4.30;81.50;;;;;;5036871;28;20040;-48
2021/12/19 08:43:29;;;;;;;13.25;8.02;;;4.30;81.70;;;;;;5036613;28;20337;-40
2021/12/19 08:45:55;;;;;;;15.27;8.35;;;4.30;81.70;;;;;;5037047;28;20037;-41
2021/12/19 08:48:21;;;;;;;14.15;8.00;;;4.30;81.80;;;;;;5036642;28;20025;-44
2021/12/19 08:50:47;;;;;;;13.38;7.40;;;4.30;81.80;;;;;;5036253;28;20033;-41
2021/12/19 08:53:13;;;;;;;16.13;8.73;;;4.30;81.70;;;;;;5036525;28;20079;-44
2021/12/19 08:55:39;;;;;;;14.13;8.32;;;4.30;81.70;;;;;;5036137;28;20128;-46
2021/12/19 08:58:06;;;;;;;15.00;8.55;;;4.30;81.80;;;;;;5036676;28;20319;-45
2021/12/19 09:00:33;;;;;;;13.70;7.40;;;4.30;82.00;;;;;;5036414;28;20096;-44
2021/12/19 09:02:59;;;;;;;14.23;8.23;;;4.30;82.10;;;;;;5036857;28;20037;-45
2021/12/19 09:05:28;;;;;;;12.55;8.07;;;4.30;82.20;;;;;;5036276;28;20040;-40
2021/12/19 09:07:54;;;;;;;13.63;8.07;;;4.30;82.60;;;;;;5036801;28;20072;-41
2021/12/19 09:10:21;;;;;;;13.55;7.85;;;4.30;83.20;;;;;;5036294;28;20083;-46
2021/12/19 09:12:47;;;;;;;13.05;7.40;;;4.30;82.70;;;;;;5036426;28;20037;-45
2021/12/19 09:15:13;;;;;;;13.80;7.80;;;4.30;82.80;;;;;;5035891;28;20038;-44
2021/12/19 09:17:39;;;;;;;12.68;7.43;;;4.30;83.00;;;;;;5036074;28;20099;-44
2021/12/19 09:20:07;;;;;;;11.95;7.60;;;4.30;83.10;;;;;;5036103;28;20040;-42
2021/12/19 09:22:34;;;;;;;14.13;8.68;;;4.30;83.20;;;;;;5036258;28;20033;-46
2021/12/19 09:24:59;;;;;;;14.25;7.50;;;4.30;83.40;;;;;;5035576;28;20033;-40
2021/12/19 09:27:26;;;;;;;15.45;7.05;;;4.30;83.50;;;;;;5036385;28;20036;-46
2021/12/19 09:29:52;;;;;;;13.00;7.13;;;4.20;83.50;;;;;;5035956;28;20033;-44
2021/12/19 09:32:18;;;;;;;12.60;7.05;;;4.30;83.60;;;;;;5036408;28;20033;-45
2021/12/19 09:34:44;;;;;;;17.17;8.27;;;4.20;83.60;;;;;;5035819;28;20039;-40
2021/12/19 09:37:09;;;;;;;12.48;7.70;;;4.30;83.70;;;;;;5036301;28;20333;-44
2021/12/19 09:39:35;;;;;;;12.57;7.15;;;4.30;83.80;;;;;;5035661;28;20436;-41
2021/12/19 09:42:09;;;;;;;13.82;7.55;;;4.30;83.80;;;;;;5035753;28;20037;-45
2021/12/19 09:44:36;;;;;;;15.02;6.93;;;4.30;83.60;;;;;;5035536;28;20456;-45
2021/12/19 09:47:04;;;;;;;11.38;7.25;;;4.30;83.70;;;;;;5035876;28;20034;-41
2021/12/19 09:49:32;;;;;;;12.50;7.78;;;4.40;83.90;;;;;;5035675;28;20040;-45
2021/12/19 09:51:58;;;;;;;11.07;6.55;;;4.40;84.10;;;;;;5036201;28;20356;-40
2021/12/19 09:54:24;;;;;;;14.48;7.70;;;4.40;84.20;;;;;;5035102;28;20141;-40
2021/12/19 09:56:50;;;;;;;14.10;6.93;;;4.40;84.30;;;;;;5035974;28;20503;-40
2021/12/19 09:59:19;;;;;;;14.23;7.85;;;4.40;84.40;;;;;;5035562;28;20030;-46
2021/12/19 10:01:46;;;;;;;12.75;6.72;;;4.40;84.70;;;;;;5045923;28;20371;-42
2021/12/19 10:04:43;;;;;;;11.75;6.97;;;4.40;84.90;;;;;;5048308;28;20040;-44
2021/12/19 10:07:29;;;;;;;13.85;6.70;;;4.40;84.60;;;;;;5036363;28;20372;-40
2021/12/19 10:10:03;;;;;;;12.23;7.28;;;4.40;84.80;;;;;;5034946;28;20041;-44
2021/12/19 10:15:13;;;;;;;12.90;6.70;;;4.40;85.10;;;;;;5034764;28;20303;-45
2021/12/19 10:17:39;;;;;;;14.20;7.50;;;4.30;85.30;;;;;;5035692;28;20064;-45
2021/12/19 10:20:12;;;;;;;11.05;6.95;;;4.30;85.20;;;;;;5035317;28;20038;-44
2021/12/19 10:22:44;;;;;;;9.20;6.28;;;4.30;85.50;;;;;;5035138;28;20489;-43
2021/12/19 10:25:13;;;;;;;12.15;7.25;;;4.30;85.70;;;;;;5035336;28;20048;-40
2021/12/19 10:27:43;;;;;;;10.93;6.45;;;4.30;85.70;;;;;;5035215;28;20034;-40
2021/12/19 10:30:12;;;;;;;16.17;8.30;;;4.30;85.70;;;;;;5034856;28;20022;-39
2021/12/19 10:32:53;;;;;;;13.45;7.70;;;4.30;86.00;;;;;;5035101;28;20041;-39
2021/12/19 10:35:24;;;;;;;18.83;12.68;;;4.30;86.10;;;;;;5035232;28;20033;-45
2021/12/19 10:37:50;;;;;;;12.80;6.53;;;4.30;86.20;;;;;;5035156;28;20072;-40
2021/12/19 10:40:16;;;;;;;16.67;7.40;;;4.30;86.50;;;;;;5035276;28;20310;-47
2021/12/19 10:42:47;;;;;;;13.00;6.50;;;4.30;86.60;;;;;;5035297;28;20037;-41
2021/12/19 10:45:29;;;;;;;13.68;7.22;;;4.30;86.70;;;;;;5038914;28;20041;-39
2021/12/19 10:48:18;;;;;;;11.30;7.03;;;4.20;86.70;;;;;;5040240;28;20030;-44
2021/12/19 10:50:54;;;;;;;10.60;6.00;;;4.20;86.60;;;;;;5034704;28;20025;-44
2021/12/19 10:53:25;;;;;;;8.73;5.40;;;4.20;86.90;;;;;;5035303;28;20025;-44
2021/12/19 10:55:51;;;;;;;10.73;6.07;;;4.20;87.00;;;;;;5043833;28;20087;-44
2021/12/19 10:58:45;;;;;;;9.82;5.95;;;4.20;87.20;;;;;;5037010;28;20026;-40
2021/12/19 11:01:22;;;;;;;16.30;6.22;;;4.10;87.10;;;;;;5034655;28;20046;-46
2021/12/19 11:03:53;;;;;;;13.40;6.53;;;4.10;87.20;;;;;;5035098;28;20036;-46
2021/12/19 11:06:22;;;;;;;10.95;5.57;;;4.10;87.30;;;;;;5035135;28;20048;-39
2021/12/19 11:08:49;;;;;;;9.32;6.05;;;4.10;87.20;;;;;;5034280;28;20021;-44
2021/12/19 11:11:49;;;;;;;11.80;6.57;;;4.10;87.30;;;;;;5035011;28;20369;-40
2021/12/19 11:14:27;;;;;;;12.43;7.30;;;4.10;87.30;;;;;;5037282;28;20029;-44
2021/12/19 11:16:55;;;;;;;10.00;6.13;;;4.10;87.40;;;;;;5038593;28;20047;-40
2021/12/19 11:19:22;;;;;;;14.05;6.13;;;4.10;87.20;;;;;;5037826;28;20033;-39
2021/12/19 11:21:48;;;;;;;11.63;6.45;;;4.10;87.10;;;;;;5037973;28;20037;-39
2021/12/19 11:24:16;;;;;;;10.10;6.35;;;4.10;86.80;;;;;;5037981;28;20036;-45
2021/12/19 11:26:44;;;;;;;11.73;6.95;;;4.20;86.60;;;;;;5038351;28;20029;-45
2021/12/19 11:29:11;;;;;;;12.35;7.05;;;4.10;86.40;;;;;;5038229;28;20388;-45
2021/12/19 11:31:39;;;;;;;13.45;6.43;;;4.10;86.10;;;;;;5038462;28;20044;-40
2021/12/19 11:34:38;;;;;;;10.80;6.60;;;4.10;86.00;;;;;;5037791;28;20112;-40
2021/12/19 11:37:07;;;;;;;15.90;7.13;;;4.10;85.60;;;;;;5043287;28;20061;-39
2021/12/19 11:39:36;;;;;;;10.57;5.85;;;4.00;85.70;;;;;;5043679;28;20361;-40
2021/12/19 11:42:14;;;;;;;9.93;5.75;;;4.00;85.50;;;;;;5038104;28;20284;-46
2021/12/19 11:47:43;;;;;;;12.65;6.28;;;3.90;85.30;;;;;;5038124;28;20424;-44
2021/12/19 11:50:23;;;;;;;10.90;6.38;;;3.80;85.10;;;;;;5037750;28;20052;-44
2021/12/19 11:52:54;;;;;;;9.85;5.45;;;3.80;85.40;;;;;;5038248;28;20033;-44
2021/12/19 11:55:39;;;;;;;10.52;5.97;;;3.70;85.60;;;;;;5037145;28;20103;-39
2021/12/19 11:58:08;;;;;;;10.40;5.90;;;3.70;85.70;;;;;;5037976;28;20055;-39
2021/12/19 12:00:40;;;;;;;11.93;5.80;;;3.70;85.90;;;;;;5037843;28;20060;-44
2021/12/19 12:03:28;;;;;;;10.05;5.65;;;3.60;86.00;;;;;;5037643;28;20104;-44
2021/12/19 12:06:14;;;;;;;11.98;5.88;;;3.60;86.00;;;;;;5037404;28;20041;-44
2021/12/19 12:09:02;;;;;;;12.18;6.10;;;3.60;86.30;;;;;;5037108;28;20207;-40
2021/12/19 12:11:29;;;;;;;12.00;5.95;;;3.60;86.60;;;;;;5037497;28;20030;-43
2021/12/19 12:14:14;;;;;;;11.80;6.05;;;3.50;86.90;;;;;;5037067;28;20109;-39
2021/12/19 12:16:55;;;;;;;8.13;5.28;;;3.50;87.30;;;;;;5037257;28;20119;-45
2021/12/19 12:19:41;;;;;;;9.75;5.60;;;3.50;87.50;;;;;;5037493;28;20029;-40
2021/12/19 12:22:40;;;;;;;13.07;7.13;;;3.40;87.70;;;;;;5037579;28;20084;-39
2021/12/19 12:25:19;;;;;;;9.88;5.63;;;3.50;87.80;;;;;;5037187;28;20061;-39
2021/12/19 12:27:51;;;;;;;11.00;6.10;;;3.50;88.00;;;;;;5036194;28;20029;-43
2021/12/19 12:30:27;;;;;;;11.63;6.05;;;3.40;88.20;;;;;;5036982;28;20305;-39
2021/12/19 12:32:54;;;;;;;12.10;7.05;;;3.40;88.40;;;;;;5037295;28;20055;-45
2021/12/19 12:35:21;;;;;;;10.52;6.20;;;3.50;88.50;;;;;;5037250;28;20037;-39
2021/12/19 12:37:48;;;;;;;10.35;5.82;;;3.50;88.40;;;;;;5037099;28;20043;-39
2021/12/19 12:40:29;;;;;;;14.13;6.97;;;3.50;88.60;;;;;;5036799;28;20092;-43
2021/12/19 12:43:02;;;;;;;16.23;6.78;;;3.50;88.60;;;;;;5036834;28;20434;-46
2021/12/19 12:45:30;;;;;;;16.52;6.85;;;3.50;88.90;;;;;;5036877;28;20381;-39
2021/12/19 12:47:56;;;;;;;17.90;8.40;;;3.60;89.20;;;;;;5036731;28;20030;-47
2021/12/19 12:50:22;;;;;;;12.23;6.75;;;3.50;89.30;;;;;;5036733;28;20084;-39
2021/12/19 12:52:47;;;;;;;16.58;7.55;;;3.60;89.50;;;;;;5036942;28;20033;-44
2021/12/19 12:55:14;;;;;;;11.30;6.75;;;3.60;89.60;;;;;;5036183;28;20052;-39
2021/12/19 12:57:43;;;;;;;12.43;6.95;;;3.60;89.80;;;;;;5036958;28;20041;-39
2021/12/19 13:00:20;;;;;;;11.25;6.45;;;3.70;90.00;;;;;;5048263;28;20333;-39
2021/12/19 13:02:54;;;;;;;11.02;6.57;;;3.70;90.00;;;;;;5039370;28;20171;-43
2021/12/19 13:05:20;;;;;;;17.17;7.72;;;3.70;90.10;;;;;;5035145;28;20291;-43
2021/12/19 13:07:46;;;;;;;15.90;7.70;;;3.70;90.10;;;;;;5046129;28;20040;-39
2021/12/19 13:10:12;;;;;;;17.42;8.23;;;3.80;90.20;;;;;;5051314;28;20051;-39
2021/12/19 13:12:41;;;;;;;13.25;7.65;;;3.80;90.20;;;;;;5054847;28;20120;-47
2021/12/19 13:15:09;;;;;;;12.30;7.20;;;3.80;90.30;;;;;;5054796;28;20083;-44
2021/12/19 13:17:38;;;;;;;15.88;7.57;;;3.90;90.30;;;;;;5056037;28;20047;-39
2021/12/19 13:20:08;;;;;;;11.18;6.38;;;3.90;90.30;;;;;;5055421;28;20041;-39
2021/12/19 13:22:50;;;;;;;14.63;7.82;;;3.90;90.30;;;;;;5056160;28;20040;-43
2021/12/19 13:25:22;;;;;;;13.80;7.50;;;4.00;90.20;;;;;;5055951;28;20033;-44
2021/12/19 13:27:49;;;;;;;13.57;7.05;;;4.00;90.30;;;;;;5055652;28;20116;-40
2021/12/19 13:30:18;;;;;;;15.10;7.70;;;4.00;90.30;;;;;;5053672;28;20029;-46
2021/12/19 13:32:48;;;;;;;13.50;7.65;;;4.00;90.20;;;;;;5054060;28;20124;-39
2021/12/19 13:35:38;;;;;;;17.73;7.65;;;4.10;90.30;;;;;;5053291;28;20029;-44
2021/12/19 13:38:05;;;;;;;12.73;6.95;;;4.10;90.30;;;;;;5053927;28;20037;-45
2021/12/19 13:40:45;;;;;;;14.80;7.95;;;4.10;90.30;;;;;;5054171;28;20040;-45
2021/12/19 13:43:17;;;;;;;15.20;7.75;;;4.10;90.30;;;;;;5054836;28;20047;-39
2021/12/19 13:46:05;;;;;;;23.80;9.68;;;4.20;90.50;;;;;;5056127;28;20032;-44
2021/12/19 13:48:36;;;;;;;12.80;7.70;;;4.20;90.50;;;;;;5055565;28;20029;-44
2021/12/19 13:51:11;;;;;;;14.07;7.88;;;4.20;90.50;;;;;;5055931;28;20116;-47
2021/12/19 13:53:40;;;;;;;16.52;8.63;;;4.20;90.60;;;;;;5055440;28;20303;-39
2021/12/19 13:56:13;;;;;;;15.80;8.10;;;4.30;90.60;;;;;;5055648;28;20040;-39
2021/12/19 13:58:46;;;;;;;17.17;8.73;;;4.30;90.70;;;;;;5055442;28;20312;-40
2021/12/19 14:01:15;;;;;;;16.05;9.18;;;4.30;90.70;;;;;;5055703;28;20048;-39
2021/12/19 14:03:49;;;;;;;10.77;7.05;;;4.40;90.70;;;;;;5055513;28;20332;-39
2021/12/19 14:06:22;;;;;;;12.48;7.25;;;4.40;90.70;;;;;;5055473;28;20033;-45
2021/12/19 14:08:56;;;;;;;11.93;6.63;;;4.50;90.70;;;;;;5055347;28;20043;-39
2021/12/19 14:11:24;;;;;;;18.45;8.57;;;4.50;90.70;;;;;;5055271;28;20110;-39
2021/12/19 14:13:59;;;;;;;12.70;7.10;;;4.50;90.70;;;;;;5055030;28;20091;-39
2021/12/19 14:17:02;;;;;;;13.02;7.10;;;4.50;90.70;;;;;;5055343;28;20104;-39
2021/12/19 14:19:33;;;;;;;13.68;7.07;;;4.60;90.60;;;;;;5054958;28;20071;-44
2021/12/19 14:22:01;;;;;;;12.10;6.63;;;4.60;90.70;;;;;;5055294;28;20536;-39
2021/12/19 14:24:47;;;;;;;13.93;7.78;;;4.60;90.70;;;;;;5054798;28;20342;-39